Terminal Aerodrome Forecast
Issued by NWS Caribou, ME

Current Version | Previous Version | Text Only | Print | Product List | Glossary On
Versions: 1 2 3 4 5 6 7 8 9 10 11 12 13 14 15 16 17 18
000 FTUS41 KCAR 261141 TAFBGR TAF KBGR 261141Z 2612/2712 28006KT P6SM SCT070 BKN200 FM261500 34004KT P6SM BKN070 FM261800 34004KT 3SM -RASN SCT007 OVC015 FM262000 02005KT 1SM -SN VV005 FM262300 02008KT 1/4SM +SN VV003 FM270600 36020G40KT 1SM -SN OVC010=

USA.gov is the U.S. government's official web portal to all federal, state and local government web resources and services.